Time;durP1;ratioP1;P1;durP2;ratioP2;P2;SDS_P1;SDS_P2;PMS_P1;PMS_P2;Temp;Humidity;BMP_temperature;BMP_pressure;BME280_temperature;BME280_humidity;BME280_pressure;Samples;Min_cycle;Max_cycle;Signal;HPM_P1;HPM_P2
2021/01/31 00:00:52;;;;;;;22.10;14.90;;;4.50;79.70;;;;;;5053340;28;20079;-59
2021/01/31 00:03:23;;;;;;;30.58;17.48;;;4.40;79.70;;;;;;5053192;28;20029;-59
2021/01/31 00:05:51;;;;;;;35.53;20.95;;;4.40;79.80;;;;;;5053940;28;20070;-59
2021/01/31 00:08:19;;;;;;;41.08;25.10;;;4.30;79.90;;;;;;5056463;28;20036;-59
2021/01/31 00:10:46;;;;;;;33.65;22.23;;;4.30;80.10;;;;;;5056703;28;20049;-59
2021/01/31 00:13:12;;;;;;;38.40;23.63;;;4.30;80.20;;;;;;5056321;28;20060;-60
2021/01/31 00:15:43;;;;;;;27.83;18.48;;;4.20;80.10;;;;;;5056538;28;20029;-58
2021/01/31 00:18:10;;;;;;;31.48;19.83;;;4.20;80.90;;;;;;5056648;28;20025;-60
2021/01/31 00:20:37;;;;;;;31.60;18.65;;;4.20;80.50;;;;;;5056600;28;20025;-58
2021/01/31 00:23:05;;;;;;;32.13;19.20;;;4.20;80.60;;;;;;5056642;28;20147;-59
2021/01/31 00:25:31;;;;;;;29.23;16.20;;;4.20;80.70;;;;;;5056539;28;20044;-59
2021/01/31 00:27:57;;;;;;;28.92;17.83;;;4.30;80.80;;;;;;5056489;28;20037;-59
2021/01/31 00:30:35;;;;;;;29.13;16.35;;;4.30;81.00;;;;;;5056302;28;20021;-59
2021/01/31 00:33:04;;;;;;;30.98;18.27;;;4.30;80.80;;;;;;5056543;28;20029;-60
2021/01/31 00:35:33;;;;;;;28.35;16.45;;;4.40;81.10;;;;;;5056430;28;20401;-60
2021/01/31 00:37:59;;;;;;;34.65;19.67;;;4.40;81.10;;;;;;5056458;28;20120;-60
2021/01/31 00:40:25;;;;;;;26.80;15.43;;;4.40;80.90;;;;;;5056106;28;20028;-60
2021/01/31 00:42:50;;;;;;;28.02;17.13;;;4.50;80.80;;;;;;5055785;28;20427;-59
2021/01/31 00:45:25;;;;;;;29.65;18.23;;;4.50;81.30;;;;;;5056043;28;20033;-56
2021/01/31 00:47:52;;;;;;;29.52;18.42;;;4.40;80.80;;;;;;5056268;28;20036;-60
2021/01/31 00:50:22;;;;;;;30.23;18.80;;;4.50;81.20;;;;;;5055842;28;20029;-60
2021/01/31 00:52:47;;;;;;;25.95;14.80;;;4.50;81.20;;;;;;5055872;28;20059;-60
2021/01/31 00:55:14;;;;;;;26.55;15.43;;;4.50;80.90;;;;;;5056085;28;20049;-60
2021/01/31 00:57:40;;;;;;;27.23;15.55;;;4.50;80.60;;;;;;5055761;28;20035;-59
2021/01/31 01:00:25;;;;;;;26.50;15.27;;;4.50;80.50;;;;;;5055888;28;20021;-60
2021/01/31 01:02:50;;;;;;;25.27;15.48;;;4.50;80.60;;;;;;5055841;28;20029;-61
2021/01/31 01:05:19;;;;;;;29.33;16.40;;;4.50;80.60;;;;;;5055660;28;20033;-59
2021/01/31 01:07:45;;;;;;;30.13;17.50;;;4.40;80.60;;;;;;5055456;28;20116;-60
2021/01/31 01:10:14;;;;;;;24.92;15.85;;;4.40;80.50;;;;;;5055470;28;20041;-59
2021/01/31 01:12:39;;;;;;;23.50;14.55;;;4.40;80.80;;;;;;5055617;28;20033;-60
2021/01/31 01:15:09;;;;;;;27.00;15.63;;;4.40;81.40;;;;;;5055183;28;20039;-59
2021/01/31 01:17:34;;;;;;;25.10;14.52;;;4.40;80.80;;;;;;5055754;28;20499;-59
2021/01/31 01:20:00;;;;;;;29.77;17.35;;;4.30;80.80;;;;;;5055427;28;20029;-60
2021/01/31 01:22:26;;;;;;;27.77;16.75;;;4.30;80.80;;;;;;5055342;28;20574;-60
2021/01/31 01:24:54;;;;;;;25.38;14.93;;;4.30;81.10;;;;;;5055185;28;20028;-60
2021/01/31 01:27:22;;;;;;;26.90;15.32;;;4.40;81.00;;;;;;5055448;28;20035;-60
2021/01/31 01:29:47;;;;;;;25.23;16.10;;;4.30;81.00;;;;;;5055204;28;20033;-60
2021/01/31 01:32:14;;;;;;;24.20;16.13;;;4.40;81.10;;;;;;5055350;28;20048;-60
2021/01/31 01:34:42;;;;;;;25.42;15.82;;;4.40;81.40;;;;;;5055072;28;20439;-60
2021/01/31 01:37:08;;;;;;;26.27;16.92;;;4.40;81.30;;;;;;5054992;28;20037;-61
2021/01/31 01:39:34;;;;;;;24.70;15.52;;;4.50;81.40;;;;;;5054961;28;20032;-60
2021/01/31 01:42:00;;;;;;;24.23;14.38;;;4.50;81.40;;;;;;5055004;28;20025;-58
2021/01/31 01:44:26;;;;;;;24.08;14.13;;;4.60;81.10;;;;;;5054499;28;20040;-60
2021/01/31 01:46:54;;;;;;;23.17;15.10;;;4.60;80.90;;;;;;5055036;28;20029;-59
2021/01/31 01:49:28;;;;;;;23.25;15.50;;;4.60;80.80;;;;;;5054789;28;20013;-59
2021/01/31 01:52:21;;;;;;;25.17;16.63;;;4.60;80.90;;;;;;5054750;28;20090;-59
2021/01/31 01:54:53;;;;;;;27.63;17.42;;;4.60;80.80;;;;;;5054991;28;20113;-60
2021/01/31 01:57:25;;;;;;;21.17;14.05;;;4.60;80.80;;;;;;5054570;28;20021;-60
2021/01/31 01:59:53;;;;;;;24.98;15.93;;;4.60;81.00;;;;;;5054668;28;20382;-60
2021/01/31 02:02:28;;;;;;;23.77;15.82;;;4.60;80.90;;;;;;5054921;28;20029;-60
2021/01/31 02:04:55;;;;;;;26.20;16.13;;;4.60;81.10;;;;;;5054929;28;20037;-60
2021/01/31 02:07:21;;;;;;;25.75;16.02;;;4.70;81.10;;;;;;5054475;28;20365;-60
2021/01/31 02:09:50;;;;;;;22.17;13.82;;;4.70;81.10;;;;;;5054367;28;20136;-59
2021/01/31 02:12:21;;;;;;;22.83;15.25;;;4.70;81.00;;;;;;5054528;28;20064;-60
2021/01/31 02:14:50;;;;;;;21.63;14.87;;;4.80;80.70;;;;;;5054267;28;20029;-60
2021/01/31 02:17:22;;;;;;;25.40;16.52;;;4.80;80.90;;;;;;5054183;28;20043;-59
2021/01/31 02:20:15;;;;;;;24.27;15.52;;;4.80;80.80;;;;;;5054185;28;20068;-60
2021/01/31 02:23:23;;;;;;;22.30;14.70;;;4.90;80.90;;;;;;5054282;28;20025;-60
2021/01/31 02:26:10;;;;;;;22.90;15.00;;;4.90;80.50;;;;;;5054470;28;20031;-60
2021/01/31 02:28:45;;;;;;;21.55;14.45;;;4.90;80.60;;;;;;5054091;28;20396;-60
2021/01/31 02:31:25;;;;;;;19.80;13.52;;;4.90;80.70;;;;;;5054159;28;20036;-59
2021/01/31 02:33:58;;;;;;;19.35;11.90;;;4.90;80.70;;;;;;5054196;28;20049;-60
2021/01/31 02:36:38;;;;;;;19.48;12.75;;;4.90;80.60;;;;;;5054078;28;20021;-60
2021/01/31 02:39:14;;;;;;;15.30;10.20;;;4.90;80.50;;;;;;5053950;28;20032;-59
2021/01/31 02:41:52;;;;;;;17.38;12.55;;;4.90;80.30;;;;;;5054167;28;20456;-60
2021/01/31 02:44:23;;;;;;;17.17;11.73;;;4.90;80.10;;;;;;5053790;28;20021;-60
2021/01/31 02:47:04;;;;;;;16.40;11.65;;;4.90;80.20;;;;;;5054251;28;20033;-59
2021/01/31 02:49:38;;;;;;;18.08;12.07;;;4.90;80.10;;;;;;5053798;28;20104;-60
2021/01/31 02:52:16;;;;;;;13.98;9.52;;;4.80;80.00;;;;;;5053518;28;20461;-59
2021/01/31 02:54:45;;;;;;;12.93;9.95;;;4.80;80.40;;;;;;5053570;28;20029;-59
2021/01/31 02:57:20;;;;;;;16.13;9.98;;;4.80;80.20;;;;;;5053812;28;20035;-59
2021/01/31 03:00:11;;;;;;;15.43;9.55;;;4.80;80.30;;;;;;5053612;28;20033;-60
2021/01/31 03:02:57;;;;;;;16.60;9.90;;;4.80;80.30;;;;;;5053477;28;20025;-60
2021/01/31 03:05:29;;;;;;;11.63;8.95;;;4.70;80.20;;;;;;5053667;28;20070;-60
2021/01/31 03:07:57;;;;;;;10.80;8.25;;;4.80;80.40;;;;;;5053520;28;20025;-60
2021/01/31 03:10:40;;;;;;;12.18;8.30;;;4.80;80.20;;;;;;5053468;28;20059;-59
2021/01/31 03:13:29;;;;;;;13.60;10.07;;;4.70;79.60;;;;;;5053728;28;20422;-59
2021/01/31 03:16:07;;;;;;;14.52;9.75;;;4.70;79.00;;;;;;5053824;28;20018;-60
2021/01/31 03:18:40;;;;;;;13.90;9.57;;;4.60;79.20;;;;;;5053728;28;20108;-60
2021/01/31 03:21:17;;;;;;;14.38;10.77;;;4.60;79.30;;;;;;5053653;28;20465;-60
2021/01/31 03:24:23;;;;;;;14.93;10.73;;;4.50;79.20;;;;;;5054000;28;20404;-60
2021/01/31 03:27:06;;;;;;;20.90;13.20;;;4.40;78.80;;;;;;5048267;28;20389;-59
2021/01/31 03:29:32;;;;;;;20.42;14.18;;;4.20;77.90;;;;;;5053389;28;20089;-59
2021/01/31 03:32:05;;;;;;;24.13;14.85;;;4.00;77.40;;;;;;5053234;28;20104;-60
2021/01/31 03:34:40;;;;;;;19.30;13.25;;;3.80;77.50;;;;;;5053246;28;20017;-60
2021/01/31 03:37:09;;;;;;;23.40;14.70;;;3.70;77.50;;;;;;5053475;28;20029;-59
2021/01/31 03:39:38;;;;;;;20.20;14.52;;;3.50;77.40;;;;;;5053472;28;20049;-59
2021/01/31 03:42:04;;;;;;;25.42;17.45;;;3.30;77.20;;;;;;5056656;28;20347;-60
2021/01/31 03:44:32;;;;;;;22.23;14.82;;;3.10;77.40;;;;;;5056845;28;20035;-59
2021/01/31 03:47:09;;;;;;;22.08;15.35;;;2.90;77.70;;;;;;5057562;28;20491;-60
2021/01/31 03:49:37;;;;;;;20.23;13.55;;;2.80;77.80;;;;;;5057197;28;20100;-59
2021/01/31 03:52:03;;;;;;;23.90;14.75;;;2.60;77.60;;;;;;5057041;28;20029;-60
2021/01/31 03:54:29;;;;;;;22.45;13.52;;;2.50;77.20;;;;;;5056812;28;20024;-58
2021/01/31 03:57:17;;;;;;;23.42;13.68;;;2.40;77.30;;;;;;5057361;28;20365;-60
2021/01/31 04:00:04;;;;;;;21.50;13.25;;;2.20;77.30;;;;;;5056819;28;20512;-60
2021/01/31 04:02:35;;;;;;;17.38;12.07;;;2.10;77.70;;;;;;5056740;28;20036;-59
2021/01/31 04:05:03;;;;;;;20.05;13.80;;;2.00;78.40;;;;;;5056940;28;20083;-57
2021/01/31 04:07:32;;;;;;;20.55;14.10;;;2.00;77.70;;;;;;5057005;28;20029;-58
2021/01/31 04:10:01;;;;;;;21.45;15.30;;;1.90;77.60;;;;;;5056556;28;20546;-60
2021/01/31 04:12:31;;;;;;;20.38;13.85;;;1.90;77.30;;;;;;5056394;28;20059;-60
2021/01/31 04:15:08;;;;;;;25.65;16.58;;;1.80;77.20;;;;;;5056716;28;20376;-60
2021/01/31 04:17:34;;;;;;;22.33;14.05;;;1.70;77.30;;;;;;5056686;28;20119;-60
2021/01/31 04:20:00;;;;;;;27.88;16.83;;;1.60;76.90;;;;;;5056435;28;20029;-60
2021/01/31 04:22:26;;;;;;;21.85;14.18;;;1.60;76.80;;;;;;5056896;28;20480;-60
2021/01/31 04:24:51;;;;;;;25.15;15.68;;;1.50;76.70;;;;;;5056962;28;20029;-60
2021/01/31 04:27:17;;;;;;;21.75;15.07;;;1.40;76.70;;;;;;5056282;28;20074;-60
2021/01/31 04:29:43;;;;;;;22.98;15.10;;;1.30;76.70;;;;;;5056563;28;20021;-59
2021/01/31 04:32:08;;;;;;;20.38;13.93;;;1.20;76.90;;;;;;5056320;28;20021;-60
2021/01/31 04:34:34;;;;;;;21.73;14.18;;;1.20;77.00;;;;;;5056351;28;20031;-60
2021/01/31 04:37:00;;;;;;;26.00;16.50;;;1.20;77.30;;;;;;5056257;28;20491;-60
2021/01/31 04:39:26;;;;;;;22.58;15.10;;;1.10;77.20;;;;;;5056241;28;20465;-58
2021/01/31 04:41:52;;;;;;;25.55;15.10;;;1.10;77.30;;;;;;5056525;28;20108;-58
2021/01/31 04:44:20;;;;;;;25.35;15.52;;;1.10;77.10;;;;;;5055525;28;20114;-60
2021/01/31 04:46:50;;;;;;;19.98;14.15;;;1.10;77.00;;;;;;5055948;28;20032;-59
2021/01/31 04:49:24;;;;;;;23.42;13.88;;;1.10;77.00;;;;;;5056279;28;20032;-59
2021/01/31 04:52:02;;;;;;;19.77;13.73;;;1.10;77.20;;;;;;5055671;28;20348;-58
2021/01/31 04:55:06;;;;;;;22.60;14.52;;;1.10;77.30;;;;;;5055875;28;20052;-60
2021/01/31 04:57:39;;;;;;;21.08;14.02;;;1.10;77.30;;;;;;5044319;28;20040;-58
2021/01/31 05:00:08;;;;;;;25.75;15.02;;;1.10;77.10;;;;;;5055524;28;20388;-59
2021/01/31 05:02:45;;;;;;;21.25;13.25;;;1.10;76.90;;;;;;5055762;28;20036;-60
2021/01/31 05:05:19;;;;;;;19.40;12.55;;;1.10;76.90;;;;;;5055750;28;20067;-60
2021/01/31 05:07:52;;;;;;;21.33;12.82;;;1.00;77.20;;;;;;5055418;28;20102;-59
2021/01/31 05:10:19;;;;;;;19.73;12.93;;;1.00;76.60;;;;;;5055496;28;20052;-60
2021/01/31 05:13:15;;;;;;;18.08;11.73;;;1.00;76.90;;;;;;5055438;28;20385;-60
2021/01/31 05:16:12;;;;;;;14.60;11.25;;;1.00;76.90;;;;;;5055117;28;20108;-58
2021/01/31 05:18:44;;;;;;;17.02;11.50;;;1.00;76.60;;;;;;5055697;28;20029;-60
2021/01/31 05:21:10;;;;;;;;;;;1.00;76.30;;;;;;5055911;28;20488;-59
2021/01/31 05:23:43;;;;;;;15.88;10.57;;;0.90;76.10;;;;;;5055165;28;19916;-59
2021/01/31 05:26:11;;;;;;;18.08;10.85;;;0.90;76.50;;;;;;5055201;28;20072;-59
2021/01/31 05:28:44;;;;;;;15.35;10.73;;;0.90;76.00;;;;;;5055307;28;20051;-58
2021/01/31 05:31:13;;;;;;;16.20;10.95;;;0.80;76.00;;;;;;5054860;28;20449;-59
2021/01/31 05:33:55;;;;;;;13.20;9.60;;;0.80;76.10;;;;;;5055414;28;20040;-59
2021/01/31 05:36:24;;;;;;;11.80;8.65;;;0.80;76.10;;;;;;5054950;28;20040;-59
2021/01/31 05:38:51;;;;;;;12.15;9.10;;;0.80;76.40;;;;;;5055003;28;20024;-59
2021/01/31 05:41:32;;;;;;;13.77;9.02;;;0.80;76.40;;;;;;5055009;28;20032;-58
2021/01/31 05:44:05;;;;;;;13.60;9.23;;;0.80;76.30;;;;;;5055029;28;20039;-58
2021/01/31 05:46:41;;;;;;;11.05;8.70;;;0.80;76.40;;;;;;5055124;28;20060;-59
2021/01/31 05:49:28;;;;;;;14.65;9.10;;;0.90;76.70;;;;;;5054777;28;20017;-58
2021/01/31 05:51:54;;;;;;;11.13;8.13;;;0.90;76.90;;;;;;5054872;28;20017;-59
2021/01/31 05:54:32;;;;;;;12.00;8.57;;;0.90;75.90;;;;;;5054912;28;20077;-60
2021/01/31 05:56:58;;;;;;;12.45;9.18;;;0.90;75.50;;;;;;5054753;28;20029;-60
2021/01/31 05:59:23;;;;;;;12.30;9.30;;;0.90;75.60;;;;;;5054703;28;20029;-60
2021/01/31 06:02:19;;;;;;;11.65;8.10;;;0.80;75.70;;;;;;5054557;28;20401;-60
2021/01/31 06:04:44;;;;;;;11.63;8.98;;;0.80;75.50;;;;;;5053889;28;20111;-59
2021/01/31 06:07:18;;;;;;;11.73;8.15;;;0.80;75.70;;;;;;5054602;28;20135;-60
2021/01/31 06:09:49;;;;;;;11.05;7.70;;;0.80;75.70;;;;;;5054516;28;20040;-60
2021/01/31 06:12:21;;;;;;;9.93;7.63;;;0.80;75.80;;;;;;5054530;28;20030;-60
2021/01/31 06:15:04;;;;;;;11.80;7.85;;;0.80;75.70;;;;;;5054447;28;20021;-60
2021/01/31 06:17:33;;;;;;;11.00;7.63;;;0.80;75.70;;;;;;5054493;28;20024;-60
2021/01/31 06:20:07;;;;;;;10.80;7.50;;;0.80;75.70;;;;;;5054625;28;20043;-60
2021/01/31 06:22:44;;;;;;;11.50;8.35;;;0.80;75.80;;;;;;5053938;28;20043;-60
2021/01/31 06:25:39;;;;;;;10.95;7.28;;;0.90;75.70;;;;;;5054272;28;20036;-60
2021/01/31 06:28:10;;;;;;;11.88;7.88;;;0.90;75.70;;;;;;5050452;28;20056;-60
2021/01/31 06:30:58;;;;;;;9.63;7.10;;;0.90;75.70;;;;;;5054075;28;20409;-60
2021/01/31 06:33:24;;;;;;;9.88;7.45;;;0.90;75.60;;;;;;5054464;28;20369;-61
2021/01/31 06:36:19;;;;;;;10.98;7.65;;;0.90;75.70;;;;;;5054258;28;20396;-60
2021/01/31 06:39:15;;;;;;;8.07;6.40;;;0.90;75.60;;;;;;5045117;28;20048;-60
2021/01/31 06:41:57;;;;;;;9.18;6.70;;;0.90;75.70;;;;;;5034096;28;20040;-60
2021/01/31 06:44:38;;;;;;;11.75;6.97;;;1.00;75.70;;;;;;5034159;28;20404;-59
2021/01/31 06:47:52;;;;;;;9.63;7.28;;;1.00;75.70;;;;;;5034208;28;20056;-59
2021/01/31 06:50:42;;;;;;;11.73;7.20;;;1.00;75.70;;;;;;5054005;28;20064;-60
2021/01/31 06:53:50;;;;;;;8.93;6.75;;;1.00;75.60;;;;;;5053707;28;20036;-59
2021/01/31 06:56:28;;;;;;;9.50;7.30;;;1.10;75.60;;;;;;5053601;28;20072;-60
2021/01/31 06:59:19;;;;;;;8.60;6.32;;;1.10;75.40;;;;;;5053840;28;20052;-59
2021/01/31 07:02:22;;;;;;;10.02;6.57;;;1.20;75.40;;;;;;5053649;28;20029;-60
2021/01/31 07:04:50;;;;;;;10.07;6.78;;;1.20;75.40;;;;;;5053910;28;20120;-60
2021/01/31 07:07:44;;;;;;;9.15;6.60;;;1.20;75.60;;;;;;5053865;28;20469;-59
2021/01/31 07:10:46;;;;;;;7.38;6.38;;;1.30;75.70;;;;;;5053377;28;20565;-60
2021/01/31 07:13:26;;;;;;;9.85;6.82;;;1.40;75.60;;;;;;5053742;28;20039;-59
2021/01/31 07:15:58;;;;;;;8.95;7.00;;;1.40;75.50;;;;;;5056598;28;20021;-58
2021/01/31 07:18:26;;;;;;;9.38;6.68;;;1.50;75.10;;;;;;5056301;28;20108;-59
2021/01/31 07:20:56;;;;;;;8.30;6.78;;;1.50;75.10;;;;;;5057618;28;20025;-59
2021/01/31 07:23:30;;;;;;;10.13;7.55;;;1.50;75.20;;;;;;5058033;28;20031;-60
2021/01/31 07:25:57;;;;;;;9.98;6.85;;;1.60;75.10;;;;;;5057835;28;20465;-60
2021/01/31 07:28:23;;;;;;;8.18;6.22;;;1.60;74.80;;;;;;5057671;28;20017;-60
2021/01/31 07:31:21;;;;;;;8.57;6.65;;;1.60;74.50;;;;;;5057549;28;20025;-60
2021/01/31 07:33:59;;;;;;;10.65;6.72;;;1.60;74.70;;;;;;5057389;28;20087;-60
2021/01/31 07:36:31;;;;;;;11.50;7.43;;;1.60;74.40;;;;;;5057451;28;20035;-60
2021/01/31 07:38:59;;;;;;;8.75;6.55;;;1.60;74.10;;;;;;5057402;28;20404;-60
2021/01/31 07:41:26;;;;;;;10.30;6.72;;;1.60;74.40;;;;;;5057510;28;20033;-59
2021/01/31 07:43:57;;;;;;;9.07;6.28;;;1.60;74.70;;;;;;5057420;28;20028;-60
2021/01/31 07:46:22;;;;;;;9.70;7.07;;;1.70;74.60;;;;;;5057048;28;20036;-60
2021/01/31 07:48:50;;;;;;;11.13;6.80;;;1.80;74.80;;;;;;5056814;28;20024;-60
2021/01/31 07:51:26;;;;;;;9.38;7.20;;;1.80;74.60;;;;;;5057404;28;20504;-60
2021/01/31 07:53:56;;;;;;;8.80;7.22;;;1.90;74.20;;;;;;5057030;28;20346;-60
2021/01/31 07:56:33;;;;;;;10.93;7.30;;;1.90;73.90;;;;;;5056992;28;20029;-61
2021/01/31 07:59:19;;;;;;;8.82;7.28;;;1.90;74.00;;;;;;5057106;28;20057;-59
2021/01/31 08:01:57;;;;;;;9.65;6.88;;;2.00;73.60;;;;;;5056824;28;20112;-60
2021/01/31 08:04:34;;;;;;;10.02;6.93;;;2.00;73.70;;;;;;5056988;28;20028;-60
2021/01/31 08:07:02;;;;;;;11.25;6.45;;;2.00;73.60;;;;;;5056918;28;20025;-60
2021/01/31 08:09:28;;;;;;;10.80;7.60;;;2.00;73.40;;;;;;5056497;28;20037;-60
2021/01/31 08:11:59;;;;;;;10.02;7.43;;;2.00;73.30;;;;;;5056615;28;20043;-60
2021/01/31 08:15:05;;;;;;;10.40;7.10;;;2.10;73.00;;;;;;5056645;28;20067;-59
2021/01/31 08:17:43;;;;;;;10.38;7.13;;;2.00;72.90;;;;;;5056307;28;20040;-60
2021/01/31 08:20:34;;;;;;;10.57;6.55;;;2.10;73.40;;;;;;5056858;28;20070;-60
2021/01/31 08:23:03;;;;;;;10.60;7.30;;;2.10;73.00;;;;;;5056682;28;20040;-61
2021/01/31 08:25:53;;;;;;;12.27;7.40;;;2.10;72.90;;;;;;5056554;28;20052;-60
2021/01/31 08:28:27;;;;;;;11.82;7.40;;;2.10;72.40;;;;;;5056107;28;20025;-60
2021/01/31 08:31:04;;;;;;;12.18;8.23;;;2.00;72.50;;;;;;5056224;28;20025;-60
2021/01/31 08:33:38;;;;;;;10.93;7.60;;;2.00;72.40;;;;;;5056278;28;20440;-60
2021/01/31 08:36:31;;;;;;;10.65;7.80;;;2.00;72.30;;;;;;5056187;28;20020;-61
2021/01/31 08:38:59;;;;;;;11.00;7.65;;;2.00;72.70;;;;;;5053985;28;20036;-60
2021/01/31 08:41:25;;;;;;;12.90;7.75;;;2.00;72.80;;;;;;5056158;28;20465;-60
2021/01/31 08:43:53;;;;;;;9.77;6.95;;;2.00;72.40;;;;;;5056311;28;20032;-60
2021/01/31 08:46:27;;;;;;;10.07;6.82;;;2.00;72.20;;;;;;5056152;28;20021;-60
2021/01/31 08:48:58;;;;;;;8.93;6.65;;;2.00;72.30;;;;;;5055898;28;20017;-60
2021/01/31 08:51:32;;;;;;;9.10;7.03;;;2.10;72.50;;;;;;5055872;28;20029;-60
2021/01/31 08:54:07;;;;;;;11.07;8.10;;;2.10;72.70;;;;;;5056032;28;20025;-60
2021/01/31 08:56:46;;;;;;;10.10;6.43;;;2.20;72.40;;;;;;5055929;28;20033;-60
2021/01/31 08:59:23;;;;;;;9.43;6.97;;;2.20;72.50;;;;;;5055600;28;20078;-60
2021/01/31 09:02:03;;;;;;;10.70;7.15;;;2.30;72.00;;;;;;5055448;28;20028;-60
2021/01/31 09:04:30;;;;;;;11.15;7.13;;;2.30;71.50;;;;;;5050925;28;20040;-60
2021/01/31 09:07:01;;;;;;;9.05;6.40;;;2.20;71.60;;;;;;5053961;28;20071;-61
2021/01/31 09:09:36;;;;;;;10.40;6.93;;;2.20;71.80;;;;;;5054253;28;20444;-59
2021/01/31 09:12:10;;;;;;;9.48;6.80;;;2.30;72.00;;;;;;5055514;28;20021;-60
2021/01/31 09:14:39;;;;;;;11.07;8.02;;;2.40;72.70;;;;;;5055579;28;20108;-60
2021/01/31 09:17:11;;;;;;;10.77;7.63;;;2.40;71.60;;;;;;5055261;28;20104;-60
2021/01/31 09:19:38;;;;;;;10.93;7.25;;;2.40;71.10;;;;;;5055035;28;20033;-60
2021/01/31 09:22:07;;;;;;;10.73;7.03;;;2.40;70.80;;;;;;5055683;28;20090;-60
2021/01/31 09:24:39;;;;;;;9.65;6.57;;;2.30;70.70;;;;;;5054858;28;20415;-58
2021/01/31 09:27:06;;;;;;;10.75;7.13;;;2.20;71.00;;;;;;5046695;28;20033;-59
2021/01/31 09:29:32;;;;;;;9.30;6.72;;;2.20;71.00;;;;;;5055002;28;20064;-59
2021/01/31 09:32:11;;;;;;;10.43;7.00;;;2.10;71.10;;;;;;5054167;28;20018;-60
2021/01/31 09:34:40;;;;;;;10.30;7.40;;;2.10;71.30;;;;;;5050305;28;20029;-60
2021/01/31 09:37:19;;;;;;;12.32;7.70;;;2.10;71.70;;;;;;5053176;28;20025;-59
2021/01/31 09:39:46;;;;;;;9.90;6.53;;;2.10;71.40;;;;;;5051897;28;20051;-59
2021/01/31 09:42:13;;;;;;;11.13;7.30;;;2.10;71.50;;;;;;5053142;28;20468;-59
2021/01/31 09:44:46;;;;;;;11.27;7.50;;;2.20;71.80;;;;;;5052586;28;20039;-60
2021/01/31 09:47:12;;;;;;;11.13;7.10;;;2.20;71.80;;;;;;5052185;28;20134;-60
2021/01/31 09:49:39;;;;;;;11.43;7.20;;;2.20;71.70;;;;;;5051900;28;20033;-60
2021/01/31 09:52:10;;;;;;;12.85;7.95;;;2.30;71.70;;;;;;5051103;28;20484;-60
2021/01/31 09:54:36;;;;;;;10.90;7.72;;;2.40;71.80;;;;;;5051678;28;20551;-61
2021/01/31 09:57:06;;;;;;;12.20;7.68;;;2.50;72.10;;;;;;5052443;28;20033;-61
2021/01/31 09:59:36;;;;;;;11.77;7.95;;;2.60;72.00;;;;;;5052852;28;20098;-61
2021/01/31 10:02:11;;;;;;;9.45;6.35;;;2.70;71.30;;;;;;5053704;28;20021;-59
2021/01/31 10:04:40;;;;;;;10.55;7.20;;;2.70;70.90;;;;;;5053053;28;20032;-60
2021/01/31 10:07:07;;;;;;;12.02;7.00;;;2.80;70.80;;;;;;5051237;28;20119;-60
2021/01/31 10:09:37;;;;;;;10.90;7.55;;;2.70;70.20;;;;;;5052186;28;20037;-60
2021/01/31 10:12:22;;;;;;;10.93;7.50;;;2.70;70.20;;;;;;5052080;28;20453;-58
2021/01/31 10:14:50;;;;;;;9.85;6.60;;;2.80;71.10;;;;;;5053018;28;20029;-60
2021/01/31 10:17:20;;;;;;;10.05;6.50;;;2.80;70.80;;;;;;5050792;28;20032;-61
2021/01/31 10:19:47;;;;;;;10.07;6.85;;;2.90;71.10;;;;;;5052699;28;20044;-61
2021/01/31 10:22:25;;;;;;;10.48;6.80;;;2.90;70.60;;;;;;5050795;28;20096;-62
2021/01/31 10:24:52;;;;;;;12.20;7.28;;;3.00;70.90;;;;;;5051490;28;20435;-59
2021/01/31 10:27:25;;;;;;;10.07;6.70;;;3.10;71.10;;;;;;5052040;28;20036;-59
2021/01/31 10:29:52;;;;;;;8.93;6.60;;;3.20;70.90;;;;;;5053245;28;20024;-59
2021/01/31 10:32:24;;;;;;;10.40;7.00;;;3.30;70.70;;;;;;5052450;28;20091;-58
2021/01/31 10:34:51;;;;;;;9.77;6.47;;;3.40;70.30;;;;;;5051891;28;20029;-60
2021/01/31 10:37:33;;;;;;;8.77;6.40;;;3.50;70.40;;;;;;5052627;28;20481;-60
2021/01/31 10:39:59;;;;;;;11.27;7.40;;;3.50;69.70;;;;;;5050977;28;20025;-60
2021/01/31 10:42:25;;;;;;;11.38;7.10;;;3.50;69.20;;;;;;5050779;28;20554;-59
2021/01/31 10:44:51;;;;;;;10.65;7.07;;;3.50;69.40;;;;;;5052646;28;20111;-60
2021/01/31 10:47:16;;;;;;;11.00;7.05;;;3.50;69.20;;;;;;5051791;28;20051;-60
2021/01/31 10:49:42;;;;;;;9.05;6.70;;;3.50;69.50;;;;;;5052542;28;20025;-60
2021/01/31 10:52:12;;;;;;;10.93;7.20;;;3.50;69.30;;;;;;5052756;28;20453;-60
2021/01/31 10:54:37;;;;;;;11.02;7.68;;;3.60;69.80;;;;;;5050513;28;20037;-60
2021/01/31 10:57:03;;;;;;;12.05;7.32;;;3.50;69.40;;;;;;5052033;28;20033;-60
2021/01/31 10:59:29;;;;;;;10.77;7.60;;;3.60;69.50;;;;;;5052170;28;20025;-60
2021/01/31 11:01:54;;;;;;;8.70;6.25;;;3.60;69.60;;;;;;5051689;28;20025;-60
2021/01/31 11:04:20;;;;;;;12.27;7.00;;;3.60;69.50;;;;;;5050810;28;20024;-59
2021/01/31 11:06:47;;;;;;;10.38;7.07;;;3.60;69.20;;;;;;5051123;28;20033;-60
2021/01/31 11:09:16;;;;;;;11.32;7.55;;;3.70;69.00;;;;;;5052460;28;20048;-58
2021/01/31 11:11:43;;;;;;;13.73;7.85;;;3.60;68.20;;;;;;5050060;28;20408;-58
2021/01/31 11:14:09;;;;;;;11.27;7.85;;;3.60;68.40;;;;;;5051411;28;20402;-58
2021/01/31 11:16:34;;;;;;;9.40;6.57;;;3.50;68.30;;;;;;5052445;28;20127;-59
2021/01/31 11:19:00;;;;;;;9.07;6.95;;;3.50;68.10;;;;;;5052708;28;20400;-60
2021/01/31 11:21:27;;;;;;;11.88;8.30;;;3.40;68.40;;;;;;5052909;28;20029;-59
2021/01/31 11:23:54;;;;;;;11.27;7.50;;;3.40;67.70;;;;;;5051981;28;20075;-60
2021/01/31 11:26:22;;;;;;;10.73;7.28;;;3.30;67.10;;;;;;5052386;28;20029;-59
2021/01/31 11:28:47;;;;;;;10.80;7.18;;;3.20;67.40;;;;;;5052002;28;20025;-60
2021/01/31 11:31:13;;;;;;;11.93;7.30;;;3.10;67.40;;;;;;5051871;28;20021;-60
2021/01/31 11:33:39;;;;;;;9.82;7.03;;;3.10;67.60;;;;;;5052471;28;20021;-60
2021/01/31 11:36:05;;;;;;;10.13;7.32;;;3.10;67.60;;;;;;5052247;28;20028;-60
2021/01/31 11:38:31;;;;;;;9.68;7.78;;;3.00;67.60;;;;;;5052411;28;20025;-60
2021/01/31 11:40:57;;;;;;;10.05;7.05;;;3.00;68.00;;;;;;5052524;28;20025;-60
2021/01/31 11:43:23;;;;;;;8.85;6.00;;;3.00;67.90;;;;;;5051415;28;20017;-60
2021/01/31 11:45:48;;;;;;;11.05;7.28;;;3.00;68.10;;;;;;5051400;28;20021;-58
2021/01/31 11:48:14;;;;;;;9.85;7.03;;;3.10;68.00;;;;;;5052071;28;20029;-58
2021/01/31 11:50:40;;;;;;;10.43;7.32;;;3.10;67.90;;;;;;5052443;28;20104;-57
2021/01/31 11:53:06;;;;;;;11.48;7.28;;;3.00;67.30;;;;;;5050648;28;20066;-59
2021/01/31 11:55:31;;;;;;;9.93;7.07;;;3.10;67.60;;;;;;5052211;28;20033;-58
2021/01/31 11:57:57;;;;;;;10.80;6.78;;;3.00;67.60;;;;;;5052178;28;20028;-59
2021/01/31 12:00:23;;;;;;;10.38;6.88;;;3.00;67.80;;;;;;5050141;28;20055;-58
2021/01/31 12:02:50;;;;;;;10.75;6.55;;;3.10;68.00;;;;;;5054815;28;20029;-59
2021/01/31 12:05:18;;;;;;;10.18;7.00;;;3.10;68.10;;;;;;5056066;28;20469;-60
2021/01/31 12:07:44;;;;;;;10.30;6.80;;;3.20;68.20;;;;;;5055802;28;20357;-60
2021/01/31 12:10:13;;;;;;;10.98;7.28;;;3.20;68.00;;;;;;5054883;28;20129;-60
2021/01/31 12:12:39;;;;;;;10.77;6.68;;;3.30;67.80;;;;;;5054901;28;20040;-60
2021/01/31 12:15:07;;;;;;;10.13;6.90;;;3.30;67.30;;;;;;5054945;28;20037;-57
2021/01/31 12:17:33;;;;;;;9.38;6.72;;;3.20;67.10;;;;;;5035706;28;20026;-57
2021/01/31 12:19:58;;;;;;;8.65;6.00;;;3.10;67.10;;;;;;5046066;28;20031;-60
2021/01/31 12:22:24;;;;;;;8.35;6.43;;;3.10;67.20;;;;;;5055643;28;20117;-57
2021/01/31 12:24:50;;;;;;;11.48;7.18;;;3.10;67.40;;;;;;5055643;28;20029;-59
2021/01/31 12:27:29;;;;;;;9.63;6.85;;;3.10;67.40;;;;;;5054473;28;20017;-59
2021/01/31 12:29:55;;;;;;;9.55;6.43;;;3.10;67.40;;;;;;5051565;28;20048;-59
2021/01/31 12:32:21;;;;;;;11.00;7.32;;;3.10;67.30;;;;;;5054395;28;20036;-59
2021/01/31 12:34:47;;;;;;;9.43;6.57;;;3.10;67.40;;;;;;5054492;28;20013;-60
2021/01/31 12:37:14;;;;;;;11.63;7.60;;;3.10;67.40;;;;;;5055305;28;20388;-60
2021/01/31 12:39:40;;;;;;;9.60;6.85;;;3.20;67.50;;;;;;5054037;28;20074;-60
2021/01/31 12:42:06;;;;;;;10.30;6.88;;;3.20;67.60;;;;;;5054422;28;20456;-61
2021/01/31 12:44:31;;;;;;;9.20;6.80;;;3.30;67.60;;;;;;5054317;28;20614;-60
2021/01/31 12:46:57;;;;;;;9.82;6.93;;;3.30;67.30;;;;;;5054942;28;20052;-60
2021/01/31 12:49:23;;;;;;;9.80;6.63;;;3.30;67.30;;;;;;5054066;28;20357;-60
2021/01/31 12:51:49;;;;;;;9.88;7.03;;;3.30;67.20;;;;;;5053656;28;20021;-60
2021/01/31 12:54:15;;;;;;;9.60;6.82;;;3.40;67.00;;;;;;5052660;28;20358;-60
2021/01/31 12:56:40;;;;;;;9.73;6.72;;;3.40;67.10;;;;;;5054137;28;20090;-60
2021/01/31 12:59:06;;;;;;;9.65;6.45;;;3.40;67.10;;;;;;5055055;28;20432;-60
2021/01/31 13:01:32;;;;;;;9.55;6.50;;;3.40;67.10;;;;;;5054434;28;20052;-60
2021/01/31 13:03:57;;;;;;;11.60;7.70;;;3.40;67.10;;;;;;5054772;28;20021;-55
2021/01/31 13:06:23;;;;;;;11.63;7.45;;;3.40;67.20;;;;;;5054380;28;20025;-58
2021/01/31 13:08:49;;;;;;;10.95;7.53;;;3.40;66.90;;;;;;5050917;28;20021;-57
2021/01/31 13:11:16;;;;;;;12.57;7.55;;;3.50;67.20;;;;;;5054456;28;20032;-57